Time;durP1;ratioP1;P1;durP2;ratioP2;P2;SDS_P1;SDS_P2;PMS_P1;PMS_P2;Temp;Humidity;BMP_temperature;BMP_pressure;BME280_temperature;BME280_humidity;BME280_pressure;Samples;Min_cycle;Max_cycle;Signal;HPM_P1;HPM_P2
2022/01/29 00:01:52;;;;;;;79.55;55.95;;;27.10;99.90;;;;;;5035632;28;20096;-67
2022/01/29 00:04:19;;;;;;;93.53;58.55;;;27.20;99.90;;;;;;5035356;28;20029;-66
2022/01/29 00:06:45;;;;;;;276.83;194.80;;;27.20;99.90;;;;;;5035042;28;20288;-66
2022/01/29 00:09:15;;;;;;;144.48;100.00;;;27.10;99.90;;;;;;5035397;28;20034;-66
2022/01/29 00:11:43;;;;;;;135.15;94.07;;;27.10;99.90;;;;;;5035040;28;20375;-67
2022/01/29 00:14:10;;;;;;;113.25;75.05;;;27.20;99.90;;;;;;5044141;28;20489;-69
2022/01/29 00:16:37;;;;;;;117.88;76.32;;;27.20;99.90;;;;;;5034890;28;20112;-69
2022/01/29 00:19:05;;;;;;;115.60;76.82;;;27.20;99.90;;;;;;5034897;28;20032;-69
2022/01/29 00:21:31;;;;;;;124.15;85.38;;;27.20;99.90;;;;;;5035184;28;20482;-69
2022/01/29 00:23:58;;;;;;;124.53;91.15;;;27.20;99.90;;;;;;5035183;28;20044;-70
2022/01/29 00:26:26;;;;;;;130.82;93.00;;;27.10;99.90;;;;;;5034980;28;20037;-69
2022/01/29 00:28:54;;;;;;;142.90;104.40;;;27.10;99.90;;;;;;5034904;28;20033;-69
2022/01/29 00:31:21;;;;;;;170.20;115.45;;;27.10;99.90;;;;;;5034663;28;20040;-68
2022/01/29 00:33:48;;;;;;;183.35;130.93;;;27.10;99.90;;;;;;5034908;28;20096;-66
2022/01/29 00:36:14;;;;;;;177.32;128.00;;;27.10;99.90;;;;;;5034668;28;20113;-66
2022/01/29 00:38:41;;;;;;;178.02;129.10;;;27.00;99.90;;;;;;5034738;28;20108;-66
2022/01/29 00:41:07;;;;;;;212.38;146.07;;;27.00;99.90;;;;;;5034757;28;20108;-66
2022/01/29 00:43:34;;;;;;;198.45;142.70;;;27.00;99.90;;;;;;5034428;28;20083;-67
2022/01/29 00:46:01;;;;;;;157.88;121.80;;;27.00;99.90;;;;;;5034622;28;20628;-66
2022/01/29 00:48:27;;;;;;;138.18;107.38;;;26.90;99.90;;;;;;5033649;28;20036;-67
2022/01/29 00:50:54;;;;;;;159.48;108.15;;;26.90;99.90;;;;;;5034239;28;20030;-66
2022/01/29 00:53:21;;;;;;;138.55;99.20;;;26.90;99.90;;;;;;5034410;28;20034;-67
2022/01/29 00:55:48;;;;;;;175.73;125.68;;;26.90;99.90;;;;;;5034439;28;20041;-67
2022/01/29 00:58:15;;;;;;;109.07;79.60;;;27.00;99.90;;;;;;5034100;28;20029;-66
2022/01/29 01:00:41;;;;;;;101.22;76.35;;;27.00;99.90;;;;;;5034460;28;20029;-69
2022/01/29 01:03:08;;;;;;;95.80;67.80;;;27.10;99.90;;;;;;5034172;28;20108;-70
2022/01/29 01:05:34;;;;;;;94.82;65.97;;;27.10;99.90;;;;;;5033808;28;20021;-69
2022/01/29 01:08:01;;;;;;;86.75;62.58;;;27.20;99.90;;;;;;5033690;28;20026;-69
2022/01/29 01:10:27;;;;;;;97.93;71.30;;;27.20;99.90;;;;;;5033912;28;20072;-69
2022/01/29 01:12:54;;;;;;;87.82;65.78;;;27.30;99.90;;;;;;5033640;28;20021;-69
2022/01/29 01:15:20;;;;;;;85.38;64.32;;;27.30;99.90;;;;;;5034000;28;20033;-69
2022/01/29 01:17:47;;;;;;;79.40;56.33;;;27.40;99.90;;;;;;5033503;28;20025;-69
2022/01/29 01:20:13;;;;;;;75.90;54.95;;;27.40;99.90;;;;;;5033526;28;20103;-69
2022/01/29 01:22:40;;;;;;;66.97;51.78;;;27.50;99.90;;;;;;5033757;28;20032;-69
2022/01/29 01:25:08;;;;;;;84.93;65.13;;;27.50;99.90;;;;;;5033368;28;20083;-69
2022/01/29 01:27:34;;;;;;;93.82;58.65;;;27.50;99.90;;;;;;5033735;28;20475;-68
2022/01/29 01:30:02;;;;;;;80.22;61.05;;;27.60;99.90;;;;;;5033792;28;20033;-69
2022/01/29 01:32:28;;;;;;;80.45;58.65;;;27.60;99.90;;;;;;5033759;28;20030;-69
2022/01/29 01:35:05;;;;;;;68.72;53.00;;;27.60;99.90;;;;;;5033461;28;20041;-68
2022/01/29 01:37:38;;;;;;;76.68;49.85;;;27.70;99.90;;;;;;5033972;28;20033;-70
2022/01/29 01:40:07;;;;;;;67.78;47.58;;;27.70;99.90;;;;;;5033449;28;20029;-68
2022/01/29 01:42:33;;;;;;;59.65;41.40;;;27.70;99.90;;;;;;5033094;28;20485;-69
2022/01/29 01:45:00;;;;;;;52.28;37.70;;;27.70;99.90;;;;;;5033371;28;20057;-69
2022/01/29 01:47:27;;;;;;;49.05;35.88;;;27.70;99.90;;;;;;5033554;28;20504;-69
2022/01/29 01:49:53;;;;;;;68.38;41.63;;;27.80;99.90;;;;;;5033474;28;20117;-68
2022/01/29 01:52:20;;;;;;;64.93;42.80;;;27.80;99.90;;;;;;5033459;28;20029;-69
2022/01/29 01:54:46;;;;;;;67.68;43.15;;;27.90;99.90;;;;;;5033042;28;20033;-69
2022/01/29 01:57:13;;;;;;;51.10;35.47;;;27.90;99.90;;;;;;5031899;28;20025;-69
2022/01/29 01:59:40;;;;;;;56.75;37.35;;;28.00;99.90;;;;;;5033453;28;20390;-69
2022/01/29 02:02:06;;;;;;;65.65;42.90;;;28.10;99.90;;;;;;5033382;28;20037;-69
2022/01/29 02:04:33;;;;;;;48.60;33.33;;;28.20;99.90;;;;;;5033427;28;20083;-69
2022/01/29 02:07:01;;;;;;;53.88;31.65;;;28.30;99.90;;;;;;5032927;28;20359;-70
2022/01/29 02:09:30;;;;;;;47.63;33.30;;;28.40;99.90;;;;;;5033399;28;20025;-69
2022/01/29 02:11:59;;;;;;;65.70;38.63;;;28.50;99.90;;;;;;5032290;28;20521;-68
2022/01/29 02:14:30;;;;;;;56.20;40.55;;;28.60;99.90;;;;;;5033289;28;20060;-69
2022/01/29 02:16:58;;;;;;;52.90;38.10;;;28.70;99.90;;;;;;5029691;28;20026;-70
2022/01/29 02:19:25;;;;;;;52.80;37.97;;;28.80;99.90;;;;;;5033264;28;20399;-69
2022/01/29 02:21:52;;;;;;;58.78;38.00;;;28.80;99.90;;;;;;5032993;28;20029;-69
2022/01/29 02:24:19;;;;;;;56.78;36.83;;;28.80;99.90;;;;;;5031579;28;20493;-69
2022/01/29 02:26:46;;;;;;;56.65;36.83;;;28.80;99.90;;;;;;5032854;28;20397;-68
2022/01/29 02:29:14;;;;;;;49.83;36.05;;;28.90;99.90;;;;;;5033312;28;20026;-70
2022/01/29 02:31:47;;;;;;;52.45;33.85;;;29.00;99.90;;;;;;5033142;28;20030;-71
2022/01/29 02:34:15;;;;;;;51.17;33.25;;;29.00;99.90;;;;;;5032960;28;20462;-70
2022/01/29 02:36:42;;;;;;;45.40;33.17;;;29.00;99.90;;;;;;5029264;28;20033;-68
2022/01/29 02:39:11;;;;;;;50.33;36.70;;;29.00;99.90;;;;;;5029203;28;20036;-70
2022/01/29 02:41:41;;;;;;;43.58;31.80;;;28.90;99.90;;;;;;5032715;28;20022;-69
2022/01/29 02:44:09;;;;;;;46.90;29.05;;;28.90;99.90;;;;;;5029949;28;20036;-70
2022/01/29 02:49:16;;;;;;;48.20;35.00;;;29.00;99.90;;;;;;5013115;28;20033;-69
2022/01/29 02:51:56;;;;;;;45.17;29.27;;;29.10;99.90;;;;;;5017868;28;20023;-69
2022/01/29 02:54:25;;;;;;;46.70;30.15;;;29.40;99.90;;;;;;5013333;28;20055;-70
2022/01/29 02:56:53;;;;;;;43.20;28.85;;;29.50;99.90;;;;;;5031659;28;20025;-70
2022/01/29 02:59:19;;;;;;;34.80;27.65;;;29.50;99.90;;;;;;5031458;28;20030;-69
2022/01/29 03:01:46;;;;;;;38.92;25.70;;;29.50;99.90;;;;;;5032860;28;20387;-69
2022/01/29 03:04:12;;;;;;;38.78;25.90;;;29.70;99.90;;;;;;5032632;28;20497;-69
2022/01/29 03:06:39;;;;;;;44.97;32.97;;;29.90;99.90;;;;;;5032593;28;20482;-70
2022/01/29 03:09:06;;;;;;;40.40;25.17;;;30.00;99.90;;;;;;5034092;28;20087;-69
2022/01/29 03:11:33;;;;;;;51.50;36.40;;;30.00;99.90;;;;;;5035957;28;20494;-69
2022/01/29 03:14:00;;;;;;;37.35;26.23;;;30.00;99.90;;;;;;5033595;28;20033;-68
2022/01/29 03:16:26;;;;;;;35.30;23.52;;;29.90;99.90;;;;;;5035662;28;20550;-69
2022/01/29 03:18:53;;;;;;;30.92;23.42;;;30.00;99.90;;;;;;5036072;28;20109;-69
2022/01/29 03:21:19;;;;;;;30.63;22.65;;;30.00;99.90;;;;;;5032902;28;20072;-69
2022/01/29 03:23:46;;;;;;;31.48;24.48;;;30.10;99.90;;;;;;5030363;28;20374;-67
2022/01/29 03:26:12;;;;;;;31.90;22.10;;;30.10;99.90;;;;;;5030330;28;20026;-68
2022/01/29 03:28:39;;;;;;;32.28;24.00;;;30.20;99.90;;;;;;5029133;28;20091;-70
2022/01/29 03:31:06;;;;;;;37.20;22.05;;;30.30;99.90;;;;;;5034017;28;20024;-69
2022/01/29 03:33:32;;;;;;;34.42;22.77;;;30.40;99.90;;;;;;5028904;28;20088;-70
2022/01/29 03:36:00;;;;;;;40.40;21.80;;;30.70;99.90;;;;;;5027508;28;20021;-69
2022/01/29 03:38:26;;;;;;;33.08;22.58;;;30.70;99.90;;;;;;5025899;28;20030;-69
2022/01/29 03:40:55;;;;;;;31.20;21.30;;;30.50;99.90;;;;;;5028643;28;20060;-68
2022/01/29 03:43:29;;;;;;;34.88;20.73;;;30.40;99.90;;;;;;5035419;28;20018;-69
2022/01/29 03:45:56;;;;;;;29.65;21.13;;;30.40;99.90;;;;;;5034116;28;20553;-69
2022/01/29 03:48:23;;;;;;;30.67;22.90;;;30.50;99.90;;;;;;5034222;28;20487;-69
2022/01/29 03:50:49;;;;;;;32.67;20.98;;;30.60;99.90;;;;;;5034606;28;20029;-69
2022/01/29 03:53:16;;;;;;;34.15;20.17;;;30.60;99.90;;;;;;5034993;28;20017;-69
2022/01/29 03:55:43;;;;;;;24.92;17.55;;;30.50;99.90;;;;;;5034841;28;20021;-69
2022/01/29 03:58:09;;;;;;;23.58;17.45;;;30.60;99.90;;;;;;5034941;28;20033;-69
2022/01/29 04:00:36;;;;;;;27.13;19.67;;;30.70;99.90;;;;;;5035484;28;20108;-69
2022/01/29 04:03:02;;;;;;;23.98;16.40;;;30.70;99.90;;;;;;5033354;28;20093;-68
2022/01/29 04:05:29;;;;;;;28.10;18.77;;;31.00;99.90;;;;;;5034056;28;20505;-69
2022/01/29 04:07:56;;;;;;;33.88;20.23;;;31.00;99.90;;;;;;5034497;28;20486;-69
2022/01/29 04:10:23;;;;;;;29.45;19.55;;;31.10;99.90;;;;;;5030675;28;20040;-68
2022/01/29 04:12:52;;;;;;;24.10;18.45;;;31.20;99.90;;;;;;5032002;28;20504;-69
2022/01/29 04:15:19;;;;;;;26.80;16.88;;;31.20;98.90;;;;;;5031071;28;20034;-67
2022/01/29 04:17:45;;;;;;;25.85;16.52;;;31.10;98.80;;;;;;5031557;28;20502;-70
2022/01/29 04:20:12;;;;;;;24.95;15.32;;;31.20;98.50;;;;;;5021489;28;20571;-69
2022/01/29 04:22:39;;;;;;;24.98;16.15;;;31.20;98.20;;;;;;5028960;28;20040;-71
2022/01/29 04:25:06;;;;;;;26.77;15.20;;;31.30;96.60;;;;;;5019821;28;20390;-70
2022/01/29 04:27:38;;;;;;;24.98;14.93;;;31.50;96.60;;;;;;5027446;28;20733;-70
2022/01/29 04:30:13;;;;;;;27.25;16.73;;;31.60;97.00;;;;;;5025219;28;20446;-70
2022/01/29 04:35:07;;;;;;;30.60;16.98;;;31.60;95.90;;;;;;5032769;28;20035;-69
2022/01/29 04:37:34;;;;;;;29.10;15.90;;;31.60;95.60;;;;;;5031767;28;20026;-67
2022/01/29 04:40:00;;;;;;;22.75;17.13;;;31.60;96.20;;;;;;5034156;28;20545;-68
2022/01/29 04:42:27;;;;;;;26.15;17.67;;;31.70;96.20;;;;;;5027037;28;20033;-69
2022/01/29 04:44:53;;;;;;;25.25;17.02;;;31.80;94.90;;;;;;5030085;28;20502;-70
2022/01/29 04:47:20;;;;;;;23.67;17.27;;;31.90;94.70;;;;;;5034381;28;20053;-71
2022/01/29 04:49:46;;;;;;;21.63;16.30;;;31.90;95.00;;;;;;5034362;28;20057;-70
2022/01/29 04:52:13;;;;;;;28.25;18.13;;;32.00;94.80;;;;;;5032141;28;20470;-70
2022/01/29 04:54:39;;;;;;;27.17;17.98;;;32.00;94.30;;;;;;5031324;28;20041;-70
2022/01/29 04:57:06;;;;;;;28.35;17.35;;;32.00;95.10;;;;;;5033481;28;20127;-68
2022/01/29 04:59:33;;;;;;;24.52;16.42;;;32.00;94.80;;;;;;5033987;28;20061;-72
2022/01/29 05:01:59;;;;;;;25.85;18.35;;;31.90;94.40;;;;;;5032159;28;20108;-70
2022/01/29 05:04:26;;;;;;;33.75;20.40;;;31.90;93.90;;;;;;5033008;28;20383;-72
2022/01/29 05:06:52;;;;;;;29.10;18.35;;;31.90;94.40;;;;;;5032130;28;20032;-71
2022/01/29 05:09:19;;;;;;;35.13;19.67;;;32.00;94.30;;;;;;5033336;28;20025;-72
2022/01/29 05:11:49;;;;;;;42.40;32.35;;;31.90;94.30;;;;;;5032534;28;20100;-71
2022/01/29 05:14:31;;;;;;;40.15;31.95;;;32.20;93.90;;;;;;5032780;28;20085;-68
2022/01/29 05:27:28;;;;;;;27.60;19.80;;;32.10;93.30;;;;;;5030839;28;20032;-69
2022/01/29 05:29:55;;;;;;;45.90;31.52;;;32.20;92.60;;;;;;5033371;28;20028;-69
2022/01/29 05:32:22;;;;;;;34.40;25.60;;;32.20;92.30;;;;;;5032730;28;20049;-69
2022/01/29 05:34:48;;;;;;;22.02;15.45;;;32.40;91.40;;;;;;5033082;28;20176;-69
2022/01/29 05:37:15;;;;;;;24.13;16.20;;;32.50;90.20;;;;;;5032186;28;20474;-69
2022/01/29 05:39:41;;;;;;;23.23;14.75;;;32.60;90.40;;;;;;5032499;28;20026;-70
2022/01/29 05:42:08;;;;;;;24.58;16.65;;;32.70;90.50;;;;;;5031815;28;20483;-75
2022/01/29 05:44:35;;;;;;;27.35;17.08;;;32.50;90.90;;;;;;5032142;28;20069;-74
2022/01/29 05:47:01;;;;;;;21.67;15.55;;;32.60;90.90;;;;;;5032381;28;20017;-73
2022/01/29 05:49:28;;;;;;;21.80;16.45;;;32.60;90.90;;;;;;5032502;28;20025;-73
2022/01/29 05:51:54;;;;;;;26.48;17.15;;;32.50;89.30;;;;;;5032298;28;20026;-73
2022/01/29 05:54:21;;;;;;;28.55;17.98;;;32.40;89.50;;;;;;5032128;28;20356;-73
2022/01/29 05:56:47;;;;;;;23.35;17.60;;;32.60;89.20;;;;;;5032113;28;20017;-72
2022/01/29 05:59:14;;;;;;;29.52;17.25;;;32.70;88.20;;;;;;5031828;28;20075;-73
2022/01/29 06:01:41;;;;;;;27.02;18.48;;;32.90;84.80;;;;;;5028197;28;20484;-75
2022/01/29 06:04:07;;;;;;;21.40;15.90;;;32.90;85.40;;;;;;5032149;28;20030;-76
2022/01/29 06:06:35;;;;;;;23.42;16.77;;;33.00;84.50;;;;;;5032075;28;20474;-73
2022/01/29 06:09:04;;;;;;;29.65;17.42;;;32.90;84.90;;;;;;5032173;28;20044;-75
2022/01/29 06:11:34;;;;;;;26.75;17.55;;;33.00;84.80;;;;;;5032404;28;20010;-74
2022/01/29 06:14:01;;;;;;;26.58;18.20;;;33.00;84.80;;;;;;5032501;28;20389;-75
2022/01/29 06:16:28;;;;;;;22.60;19.42;;;33.10;84.80;;;;;;5027727;28;20390;-76
2022/01/29 06:18:55;;;;;;;26.17;18.83;;;33.10;83.20;;;;;;5021439;28;20084;-78
2022/01/29 06:21:21;;;;;;;22.83;18.00;;;33.00;83.50;;;;;;5030141;28;20132;-79
2022/01/29 06:23:48;;;;;;;20.25;15.02;;;33.00;84.50;;;;;;5030790;28;20030;-81
2022/01/29 06:26:16;;;;;;;25.00;18.27;;;33.20;84.20;;;;;;5026741;28;20079;-76
2022/01/29 06:28:43;;;;;;;22.55;16.50;;;33.40;82.70;;;;;;5022898;28;20017;-78
2022/01/29 06:31:11;;;;;;;24.10;17.80;;;33.50;81.50;;;;;;5024399;28;20099;-77
2022/01/29 06:33:38;;;;;;;28.45;18.05;;;33.60;81.50;;;;;;5025262;28;20030;-77
2022/01/29 06:36:05;;;;;;;27.17;19.17;;;33.60;79.10;;;;;;5026788;28;20501;-76
2022/01/29 06:38:32;;;;;;;44.20;30.75;;;33.70;76.50;;;;;;5027338;28;20064;-79
2022/01/29 06:40:59;;;;;;;52.35;37.83;;;33.70;79.40;;;;;;5026679;28;20068;-78
2022/01/29 06:43:26;;;;;;;34.63;22.25;;;33.60;78.90;;;;;;5030118;28;20053;-76
2022/01/29 06:45:53;;;;;;;26.25;18.48;;;33.60;79.70;;;;;;5031760;28;20021;-78
2022/01/29 06:48:19;;;;;;;25.88;18.80;;;33.60;79.70;;;;;;5028760;28;20097;-79
2022/01/29 06:50:46;;;;;;;29.85;18.15;;;33.70;79.30;;;;;;5035390;28;20022;-76
2022/01/29 06:53:13;;;;;;;24.42;18.63;;;33.70;79.60;;;;;;5034330;28;20437;-76
2022/01/29 06:55:40;;;;;;;24.70;17.83;;;33.70;79.30;;;;;;5032700;28;20201;-75
2022/01/29 06:58:06;;;;;;;28.75;17.90;;;33.70;79.10;;;;;;5029920;28;20475;-76
2022/01/29 07:00:33;;;;;;;27.90;19.58;;;33.70;79.70;;;;;;5032315;28;20087;-78
2022/01/29 07:03:00;;;;;;;27.55;16.48;;;33.70;79.90;;;;;;5035899;28;20033;-78
2022/01/29 07:05:26;;;;;;;27.08;18.42;;;33.50;78.70;;;;;;5035615;28;20132;-77
2022/01/29 07:07:53;;;;;;;24.88;17.90;;;33.40;80.60;;;;;;5035695;28;20029;-80
2022/01/29 07:10:19;;;;;;;27.77;18.80;;;33.40;79.80;;;;;;5029418;28;20379;-77
2022/01/29 07:12:46;;;;;;;28.00;18.42;;;33.40;79.00;;;;;;5032414;28;20030;-75
2022/01/29 07:15:13;;;;;;;25.17;17.98;;;33.60;79.20;;;;;;5034851;28;20454;-79
2022/01/29 07:17:40;;;;;;;26.20;18.58;;;33.60;78.60;;;;;;5034949;28;20175;-79
2022/01/29 07:20:07;;;;;;;28.27;18.42;;;33.60;78.00;;;;;;5035149;28;20426;-76
2022/01/29 07:22:34;;;;;;;26.38;17.20;;;33.60;77.90;;;;;;5036060;28;20056;-78
2022/01/29 07:25:01;;;;;;;21.40;16.75;;;33.70;78.60;;;;;;5017478;28;20022;-77
2022/01/29 07:27:28;;;;;;;19.70;16.02;;;33.70;77.10;;;;;;5016281;28;20121;-78
2022/01/29 07:29:54;;;;;;;19.50;15.90;;;33.80;75.80;;;;;;5015832;28;20026;-77
2022/01/29 07:32:21;;;;;;;24.27;17.00;;;33.80;75.80;;;;;;5015871;28;20033;-79
2022/01/29 07:34:47;;;;;;;27.55;18.05;;;33.70;76.50;;;;;;5013847;28;20554;-76
2022/01/29 07:37:14;;;;;;;25.17;20.35;;;33.60;77.20;;;;;;5034147;28;20091;-79
2022/01/29 07:39:40;;;;;;;26.60;19.08;;;33.60;79.20;;;;;;5035441;28;20032;-76
2022/01/29 07:42:07;;;;;;;27.60;18.55;;;33.70;79.70;;;;;;5035814;28;20033;-79
2022/01/29 07:44:34;;;;;;;26.48;17.13;;;33.60;79.70;;;;;;5035741;28;20493;-81
2022/01/29 07:47:00;;;;;;;24.80;18.17;;;33.60;79.20;;;;;;5035488;28;20498;-77
2022/01/29 07:49:27;;;;;;;29.70;20.77;;;33.50;78.70;;;;;;5034379;28;20478;-77
2022/01/29 07:51:54;;;;;;;23.33;17.80;;;33.50;77.50;;;;;;5033877;28;20075;-75
2022/01/29 07:54:20;;;;;;;28.15;17.50;;;33.50;78.00;;;;;;5034523;28;20030;-78
2022/01/29 07:56:47;;;;;;;23.85;17.02;;;33.60;77.10;;;;;;5035033;28;20033;-80
2022/01/29 07:59:13;;;;;;;23.63;17.23;;;33.70;78.10;;;;;;5031899;28;20490;-81
2022/01/29 08:01:40;;;;;;;24.70;17.80;;;33.70;77.00;;;;;;5028246;28;20026;-76
2022/01/29 08:04:07;;;;;;;24.05;16.60;;;33.70;78.00;;;;;;5031951;28;20035;-80
2022/01/29 08:06:33;;;;;;;26.35;18.45;;;33.80;77.50;;;;;;5027549;28;20026;-78
2022/01/29 08:09:00;;;;;;;29.00;20.60;;;33.80;78.30;;;;;;5028710;28;20028;-81
2022/01/29 08:11:26;;;;;;;29.60;18.05;;;33.80;79.20;;;;;;5024351;28;20053;-80
2022/01/29 08:13:53;;;;;;;26.05;19.30;;;33.80;77.70;;;;;;5029201;28;20551;-80
2022/01/29 08:16:20;;;;;;;26.08;17.85;;;33.90;76.90;;;;;;5033385;28;20469;-80
2022/01/29 08:18:47;;;;;;;30.00;20.55;;;33.80;77.00;;;;;;5032432;28;20029;-81
2022/01/29 08:21:15;;;;;;;23.50;19.60;;;33.80;78.00;;;;;;5030933;28;20449;-78
2022/01/29 08:23:43;;;;;;;31.88;22.73;;;33.70;75.70;;;;;;5027616;28;20425;-76
2022/01/29 08:26:10;;;;;;;34.10;20.35;;;33.70;76.80;;;;;;5028841;28;20021;-77
2022/01/29 08:28:37;;;;;;;31.95;18.58;;;33.70;78.00;;;;;;5030241;28;20022;-78
2022/01/29 08:31:05;;;;;;;25.95;18.75;;;33.70;76.20;;;;;;5027458;28;20022;-78
2022/01/29 08:33:32;;;;;;;34.58;20.20;;;33.60;76.80;;;;;;5031979;28;20022;-76
2022/01/29 08:35:58;;;;;;;37.53;25.50;;;33.70;75.80;;;;;;5022771;28;20025;-75
2022/01/29 08:38:26;;;;;;;42.60;28.10;;;33.70;74.60;;;;;;5033959;28;20021;-71
2022/01/29 08:40:54;;;;;;;32.80;20.73;;;33.60;73.40;;;;;;5034570;28;20359;-75
2022/01/29 08:43:22;;;;;;;30.30;23.42;;;33.60;75.10;;;;;;5034279;28;20116;-73
2022/01/29 08:45:50;;;;;;;29.23;18.80;;;33.60;76.30;;;;;;5034928;28;20032;-75
2022/01/29 08:48:17;;;;;;;33.10;21.05;;;33.60;76.10;;;;;;5034396;28;20490;-73
2022/01/29 08:50:44;;;;;;;31.58;19.50;;;33.60;76.50;;;;;;5033815;28;20075;-74
2022/01/29 08:53:11;;;;;;;30.65;18.83;;;33.60;75.40;;;;;;5035071;28;20425;-73
2022/01/29 08:55:38;;;;;;;33.47;20.10;;;33.60;75.60;;;;;;5033833;28;20097;-74
2022/01/29 08:58:07;;;;;;;33.05;20.05;;;33.50;77.80;;;;;;5033843;28;20513;-71
2022/01/29 09:00:39;;;;;;;30.25;20.67;;;33.50;76.80;;;;;;5033964;28;20194;-72
2022/01/29 09:03:06;;;;;;;37.13;26.60;;;33.50;77.70;;;;;;5033717;28;20030;-72
2022/01/29 09:05:34;;;;;;;41.58;24.95;;;33.50;78.50;;;;;;5033285;28;20040;-74
2022/01/29 09:08:03;;;;;;;27.88;18.55;;;33.60;79.40;;;;;;5030693;28;20386;-72
2022/01/29 09:10:31;;;;;;;34.90;18.83;;;33.60;77.60;;;;;;5034187;28;20026;-72
2022/01/29 09:12:57;;;;;;;38.38;24.38;;;33.50;78.00;;;;;;5033721;28;20037;-73
2022/01/29 09:15:24;;;;;;;38.75;26.85;;;33.40;79.00;;;;;;5033975;28;20037;-73
2022/01/29 09:17:51;;;;;;;37.33;23.40;;;33.40;78.60;;;;;;5033852;28;20064;-75
2022/01/29 09:20:18;;;;;;;28.60;20.02;;;33.50;77.90;;;;;;5036176;28;20069;-74
2022/01/29 09:22:44;;;;;;;55.50;31.30;;;33.40;77.60;;;;;;5032658;28;20033;-72
2022/01/29 09:25:11;;;;;;;49.35;30.60;;;33.40;78.30;;;;;;5033021;28;20038;-72
2022/01/29 09:27:38;;;;;;;41.67;27.58;;;33.40;77.90;;;;;;5037105;28;20025;-72
2022/01/29 09:30:07;;;;;;;48.90;32.88;;;33.30;77.20;;;;;;5034347;28;20017;-71
2022/01/29 09:32:33;;;;;;;47.67;30.98;;;33.20;77.90;;;;;;5033656;28;20029;-72
2022/01/29 09:35:00;;;;;;;47.50;31.13;;;33.20;78.10;;;;;;5033647;28;20017;-72
2022/01/29 09:37:27;;;;;;;83.57;57.38;;;33.20;78.40;;;;;;5033879;28;20037;-72
2022/01/29 09:39:54;;;;;;;141.38;93.80;;;33.20;78.30;;;;;;5033348;28;20026;-69
2022/01/29 09:42:21;;;;;;;70.88;47.63;;;33.20;77.40;;;;;;5033093;28;20070;-72
2022/01/29 09:44:49;;;;;;;55.92;34.95;;;33.20;77.40;;;;;;5032616;28;20041;-74
2022/01/29 09:47:18;;;;;;;59.38;40.28;;;33.30;77.30;;;;;;5032651;28;20029;-72
2022/01/29 09:49:46;;;;;;;68.50;48.28;;;33.30;77.40;;;;;;5032088;28;20032;-74
2022/01/29 09:52:12;;;;;;;74.38;39.92;;;33.30;78.20;;;;;;5032621;28;20519;-74
2022/01/29 09:54:39;;;;;;;76.40;44.15;;;33.30;77.60;;;;;;5031900;28;20021;-74
2022/01/29 09:57:06;;;;;;;97.97;56.88;;;33.40;78.00;;;;;;5024467;28;20095;-73
2022/01/29 09:59:33;;;;;;;76.90;47.03;;;33.40;77.90;;;;;;5032213;28;20314;-73
2022/01/29 10:01:59;;;;;;;84.55;45.70;;;33.30;78.50;;;;;;5033345;28;20025;-71
2022/01/29 10:04:29;;;;;;;49.55;31.55;;;33.30;78.60;;;;;;5031502;28;20025;-72
2022/01/29 10:07:14;;;;;;;49.20;30.42;;;33.30;77.90;;;;;;5028232;28;20041;-71
2022/01/29 10:09:41;;;;;;;57.90;31.42;;;33.20;78.20;;;;;;5032126;28;20441;-74
2022/01/29 10:12:19;;;;;;;39.10;27.73;;;33.10;78.50;;;;;;5032827;28;20168;-70
2022/01/29 10:14:48;;;;;;;64.80;39.40;;;33.10;79.20;;;;;;5032073;28;20143;-73
2022/01/29 10:17:41;;;;;;;51.10;32.35;;;33.00;80.20;;;;;;5031651;28;20022;-73
2022/01/29 10:20:13;;;;;;;48.38;29.23;;;33.00;79.90;;;;;;5033938;28;20072;-74
2022/01/29 10:22:41;;;;;;;45.72;31.25;;;33.00;80.50;;;;;;5034017;28;20033;-74
2022/01/29 10:25:13;;;;;;;57.22;33.78;;;32.90;80.80;;;;;;5034387;28;20409;-73
2022/01/29 10:27:59;;;;;;;56.80;33.78;;;32.90;80.10;;;;;;5032841;28;20116;-73
2022/01/29 10:30:30;;;;;;;52.20;30.40;;;33.00;80.60;;;;;;5034862;28;20101;-72
2022/01/29 10:33:16;;;;;;;42.72;27.15;;;33.00;81.10;;;;;;5035480;28;20032;-71
2022/01/29 10:35:43;;;;;;;57.92;31.88;;;33.00;78.80;;;;;;5033764;28;20466;-72
2022/01/29 10:38:10;;;;;;;49.72;30.58;;;33.00;79.20;;;;;;5035049;28;20033;-72
2022/01/29 10:40:38;;;;;;;65.28;44.45;;;33.00;79.90;;;;;;5036424;28;20481;-73
2022/01/29 10:43:07;;;;;;;48.08;34.28;;;33.00;79.70;;;;;;5037061;28;20036;-73
2022/01/29 10:45:35;;;;;;;49.83;33.88;;;33.00;79.40;;;;;;5036091;28;20029;-70
2022/01/29 10:48:04;;;;;;;58.50;37.60;;;32.90;79.50;;;;;;5036535;28;20017;-70
2022/01/29 10:50:32;;;;;;;61.83;37.75;;;32.90;80.00;;;;;;5036115;28;20062;-70
2022/01/29 10:53:19;;;;;;;70.97;49.03;;;32.90;80.40;;;;;;5036318;28;20060;-70
2022/01/29 10:55:58;;;;;;;72.97;50.85;;;32.90;79.80;;;;;;5035987;28;20390;-70
2022/01/29 10:58:25;;;;;;;64.40;44.35;;;32.90;80.60;;;;;;5036082;28;20033;-73
2022/01/29 11:01:13;;;;;;;69.88;44.67;;;32.80;80.20;;;;;;5036677;28;20083;-71
2022/01/29 11:03:40;;;;;;;84.22;49.72;;;32.80;80.70;;;;;;5035512;28;20032;-74
2022/01/29 11:06:09;;;;;;;344.67;271.45;;;32.80;81.50;;;;;;5033412;28;20053;-73
2022/01/29 11:08:38;;;;;;;151.35;105.32;;;32.80;81.50;;;;;;5035676;28;20033;-75
2022/01/29 11:11:06;;;;;;;110.38;71.70;;;32.70;80.80;;;;;;5035969;28;20017;-74
2022/01/29 11:13:36;;;;;;;99.65;70.65;;;32.60;81.60;;;;;;5035845;28;20029;-76
2022/01/29 11:16:03;;;;;;;67.20;44.80;;;32.50;82.70;;;;;;5035938;28;20025;-75
2022/01/29 11:18:32;;;;;;;57.72;34.72;;;32.50;83.00;;;;;;5035945;28;20041;-73
2022/01/29 11:20:59;;;;;;;55.40;35.17;;;32.50;83.30;;;;;;5035636;28;20119;-69
2022/01/29 11:23:27;;;;;;;53.65;33.35;;;32.40;84.00;;;;;;5035819;28;20087;-69
2022/01/29 11:25:59;;;;;;;48.58;26.98;;;32.40;85.00;;;;;;5035576;28;20483;-68
2022/01/29 11:28:28;;;;;;;42.45;28.45;;;32.40;85.30;;;;;;5030591;28;20116;-72
2022/01/29 11:31:16;;;;;;;50.08;32.13;;;32.30;86.00;;;;;;5035066;28;20063;-72
2022/01/29 11:34:00;;;;;;;53.67;32.28;;;32.40;85.70;;;;;;5030869;28;20521;-72
2022/01/29 11:36:47;;;;;;;59.95;31.40;;;32.20;85.80;;;;;;5015954;28;20037;-71
2022/01/29 11:39:20;;;;;;;47.38;29.65;;;32.10;87.00;;;;;;5026065;28;20450;-70
2022/01/29 11:42:16;;;;;;;52.15;34.95;;;32.00;87.10;;;;;;5036304;28;20044;-71
2022/01/29 11:44:45;;;;;;;56.53;36.88;;;31.90;87.40;;;;;;5035485;28;21349;-70
2022/01/29 11:47:23;;;;;;;54.50;35.17;;;31.80;87.70;;;;;;5034973;28;20021;-71
2022/01/29 11:49:51;;;;;;;94.13;60.05;;;31.70;87.50;;;;;;5034465;28;20017;-68
2022/01/29 11:52:23;;;;;;;51.67;32.10;;;31.70;88.10;;;;;;5034552;28;20108;-71
2022/01/29 11:54:59;;;;;;;55.08;30.95;;;31.70;88.50;;;;;;5034610;28;20024;-71
2022/01/29 11:57:26;;;;;;;49.28;28.65;;;31.60;88.20;;;;;;5035346;28;20048;-70
2022/01/29 11:59:52;;;;;;;44.05;24.60;;;31.60;88.70;;;;;;5035350;28;20441;-70
2022/01/29 12:02:36;;;;;;;47.53;24.27;;;31.50;88.70;;;;;;5035095;28;20394;-71
2022/01/29 12:05:06;;;;;;;41.78;24.85;;;31.50;89.80;;;;;;5034923;28;20043;-72
2022/01/29 12:07:39;;;;;;;50.97;28.35;;;31.50;89.50;;;;;;5035218;28;20076;-71
2022/01/29 12:10:14;;;;;;;53.38;27.70;;;31.40;89.70;;;;;;5034930;28;20242;-71
2022/01/29 12:12:46;;;;;;;47.60;26.92;;;31.30;89.70;;;;;;5034969;28;20214;-73
2022/01/29 12:15:12;;;;;;;48.70;30.02;;;31.20;90.30;;;;;;5034547;28;20075;-73
2022/01/29 12:17:49;;;;;;;38.90;25.02;;;31.10;90.50;;;;;;5034850;28;20385;-73
2022/01/29 12:20:21;;;;;;;42.00;24.58;;;31.00;90.80;;;;;;5033618;28;20133;-73
2022/01/29 12:22:49;;;;;;;32.97;22.55;;;31.00;91.20;;;;;;5034731;28;20033;-70
2022/01/29 12:25:19;;;;;;;36.72;22.85;;;31.10;91.30;;;;;;5034419;28;20041;-71
2022/01/29 12:27:51;;;;;;;38.40;23.08;;;31.10;91.40;;;;;;5034587;28;20029;-71
2022/01/29 12:30:22;;;;;;;40.38;23.48;;;31.10;91.70;;;;;;5032677;28;20033;-70
2022/01/29 12:33:00;;;;;;;45.23;25.87;;;31.00;91.50;;;;;;5015314;28;20479;-71
2022/01/29 12:35:50;;;;;;;51.63;26.75;;;30.90;91.90;;;;;;5030478;28;20141;-70
2022/01/29 12:38:19;;;;;;;44.92;22.45;;;30.80;92.10;;;;;;5023225;28;20037;-70
2022/01/29 12:40:55;;;;;;;35.65;21.42;;;30.80;92.00;;;;;;5034306;28;20041;-72
2022/01/29 12:43:38;;;;;;;36.50;23.40;;;30.70;92.50;;;;;;5034178;28;20029;-69
2022/01/29 12:46:12;;;;;;;35.88;21.67;;;30.70;92.50;;;;;;5034132;28;20133;-69
2022/01/29 12:48:39;;;;;;;34.85;21.25;;;30.60;93.10;;;;;;5034346;28;20052;-70